createdAt,value
2022-09-22T00:01:30.776Z,99.90
2022-09-22T00:04:00.544Z,99.90
2022-09-22T00:06:30.536Z,99.90
2022-09-22T00:09:00.888Z,99.90
2022-09-22T00:11:37.124Z,99.90
2022-09-22T00:14:12.874Z,99.90
2022-09-22T00:16:42.690Z,99.90
2022-09-22T00:19:15.551Z,99.90
2022-09-22T00:21:43.941Z,99.90
2022-09-22T00:24:16.493Z,99.90
2022-09-22T00:26:45.231Z,99.90
2022-09-22T00:29:16.088Z,99.90
2022-09-22T00:31:44.931Z,99.90
2022-09-22T00:34:17.517Z,99.90
2022-09-22T00:36:46.242Z,99.90
2022-09-22T00:39:15.473Z,99.90
2022-09-22T00:41:45.017Z,99.90
2022-09-22T00:44:29.440Z,99.90
2022-09-22T00:47:01.484Z,99.90
2022-09-22T00:49:48.591Z,99.90
2022-09-22T00:52:19.531Z,99.90
2022-09-22T00:54:48.795Z,99.90
2022-09-22T00:57:20.875Z,99.90
2022-09-22T00:59:50.641Z,99.90
2022-09-22T01:02:20.031Z,99.90
2022-09-22T01:04:54.166Z,99.90
2022-09-22T01:07:24.605Z,99.90
2022-09-22T01:09:53.449Z,99.90
2022-09-22T01:12:23.499Z,99.90
2022-09-22T01:15:19.443Z,99.90
2022-09-22T01:17:56.661Z,99.90
2022-09-22T01:20:47.970Z,99.90
2022-09-22T01:23:28.370Z,99.90
2022-09-22T01:25:59.476Z,99.90
2022-09-22T01:28:47.897Z,99.90
2022-09-22T01:31:34.903Z,99.90
2022-09-22T01:34:06.464Z,99.90
2022-09-22T01:36:37.950Z,99.90
2022-09-22T01:39:15.302Z,99.90
2022-09-22T01:41:47.057Z,99.90
2022-09-22T01:44:31.632Z,99.90
2022-09-22T01:47:05.988Z,99.90
2022-09-22T01:49:35.751Z,99.90
2022-09-22T01:52:08.344Z,99.90
2022-09-22T01:54:49.964Z,99.90
2022-09-22T01:57:21.359Z,99.90
2022-09-22T01:59:52.973Z,99.90
2022-09-22T02:03:40.436Z,99.90
2022-09-22T02:06:18.325Z,99.90
2022-09-22T02:08:56.787Z,99.90
2022-09-22T02:11:25.889Z,99.90
2022-09-22T02:13:53.705Z,99.90
2022-09-22T02:16:22.523Z,99.90
2022-09-22T02:18:51.468Z,99.90
2022-09-22T02:21:20.981Z,99.90
2022-09-22T02:23:49.178Z,99.90
2022-09-22T02:26:30.266Z,99.90
2022-09-22T02:29:03.307Z,99.90
2022-09-22T02:31:32.929Z,99.90
2022-09-22T02:34:00.974Z,99.90
2022-09-22T02:36:47.269Z,99.90
2022-09-22T02:39:35.330Z,99.90
2022-09-22T02:42:06.073Z,99.90
2022-09-22T02:44:37.579Z,99.90
2022-09-22T02:47:28.417Z,99.90
2022-09-22T02:49:57.146Z,99.90
2022-09-22T02:52:24.910Z,99.90
2022-09-22T02:54:53.644Z,99.90
2022-09-22T02:57:21.472Z,99.90
2022-09-22T02:59:49.282Z,99.90
2022-09-22T03:02:16.979Z,99.90
2022-09-22T03:04:45.012Z,99.90
2022-09-22T03:07:12.638Z,99.90
2022-09-22T03:09:40.173Z,99.90
2022-09-22T03:12:07.647Z,99.90
2022-09-22T03:14:35.508Z,99.90
2022-09-22T03:17:03.144Z,99.90
2022-09-22T03:19:30.901Z,99.90
2022-09-22T03:21:58.440Z,99.90
2022-09-22T03:24:26.948Z,99.90
2022-09-22T03:26:54.741Z,99.90
2022-09-22T03:29:22.417Z,99.90
2022-09-22T03:31:50.259Z,99.90
2022-09-22T03:34:18.195Z,99.90
2022-09-22T03:36:46.195Z,99.90
2022-09-22T03:39:14.141Z,99.90
2022-09-22T03:41:41.996Z,99.90
2022-09-22T03:44:09.673Z,99.90
2022-09-22T03:46:40.907Z,99.90
2022-09-22T03:49:09.449Z,99.90
2022-09-22T03:51:36.935Z,99.90
2022-09-22T03:54:04.841Z,99.90
2022-09-22T03:56:33.137Z,99.90
2022-09-22T03:59:01.402Z,99.90
2022-09-22T04:01:29.977Z,99.90
2022-09-22T04:03:57.702Z,99.90
2022-09-22T04:06:25.279Z,99.90
2022-09-22T04:08:53.059Z,99.90
2022-09-22T04:11:20.595Z,99.90
2022-09-22T04:13:50.433Z,99.90
2022-09-22T04:16:18.273Z,99.90
2022-09-22T04:18:47.122Z,99.90
2022-09-22T04:21:15.210Z,99.90
2022-09-22T04:23:42.666Z,99.90
2022-09-22T04:26:10.266Z,99.90
2022-09-22T04:28:38.622Z,99.90
2022-09-22T04:31:06.560Z,99.90
2022-09-22T04:33:35.977Z,99.90
2022-09-22T04:36:04.275Z,99.90
2022-09-22T04:38:37.444Z,99.90
2022-09-22T04:41:12.677Z,99.90
2022-09-22T04:43:43.521Z,99.90
2022-09-22T04:46:22.078Z,99.90
2022-09-22T04:48:49.751Z,99.90
2022-09-22T04:51:17.155Z,99.90
2022-09-22T04:53:44.807Z,99.90
2022-09-22T04:56:12.545Z,99.90
2022-09-22T04:58:40.046Z,99.90
2022-09-22T05:01:11.328Z,99.90
2022-09-22T05:03:39.346Z,99.90
2022-09-22T05:06:07.106Z,99.90
2022-09-22T05:08:34.614Z,99.90
2022-09-22T05:11:02.794Z,99.90
2022-09-22T05:13:30.984Z,99.90
2022-09-22T05:15:59.449Z,99.90
2022-09-22T05:18:27.222Z,99.90
2022-09-22T05:20:55.318Z,99.90
2022-09-22T05:23:22.971Z,99.90
2022-09-22T05:25:50.466Z,99.90
2022-09-22T05:28:17.923Z,99.90
2022-09-22T05:30:45.206Z,99.90
2022-09-22T05:33:12.694Z,99.90
2022-09-22T05:35:40.449Z,99.90
2022-09-22T05:38:07.994Z,99.90
2022-09-22T05:40:35.543Z,99.90
2022-09-22T05:43:02.930Z,99.90
2022-09-22T05:45:30.781Z,99.90
2022-09-22T05:47:58.397Z,99.90
2022-09-22T05:50:27.050Z,99.90
2022-09-22T05:53:06.618Z,99.90
2022-09-22T05:55:36.490Z,99.90
2022-09-22T05:58:04.790Z,99.90
2022-09-22T06:00:33.054Z,99.90
2022-09-22T06:03:01.226Z,99.90
2022-09-22T06:05:38.426Z,99.90
2022-09-22T06:08:06.829Z,99.90
2022-09-22T06:10:38.008Z,99.90
2022-09-22T06:13:06.645Z,99.90
2022-09-22T06:15:36.009Z,99.90
2022-09-22T06:18:07.598Z,99.90
2022-09-22T06:20:36.013Z,99.90
2022-09-22T06:23:03.682Z,99.90
2022-09-22T06:25:38.727Z,99.90
2022-09-22T06:28:13.357Z,99.90
2022-09-22T06:30:42.993Z,99.90
2022-09-22T06:33:12.136Z,99.90
2022-09-22T06:35:43.263Z,99.90
2022-09-22T06:38:15.095Z,99.90
2022-09-22T06:40:43.678Z,99.90
2022-09-22T06:43:29.762Z,99.90
2022-09-22T06:46:00.117Z,99.90
2022-09-22T06:48:27.810Z,99.90
2022-09-22T06:50:55.895Z,99.90
2022-09-22T06:53:27.043Z,99.90
2022-09-22T06:55:55.289Z,99.90
2022-09-22T06:58:52.366Z,99.90
2022-09-22T07:01:22.576Z,99.90
2022-09-22T07:03:50.838Z,99.90
2022-09-22T07:06:20.420Z,99.90
2022-09-22T07:08:48.900Z,99.90
2022-09-22T07:11:24.377Z,99.90
2022-09-22T07:13:53.511Z,99.90
2022-09-22T07:16:22.576Z,99.90
2022-09-22T07:18:51.436Z,99.90
2022-09-22T07:21:24.092Z,99.90
2022-09-22T07:23:53.505Z,99.90
2022-09-22T07:26:22.571Z,99.90
2022-09-22T07:28:52.220Z,99.90
2022-09-22T07:31:23.885Z,99.90
2022-09-22T07:33:54.596Z,99.90
2022-09-22T07:36:22.879Z,99.90
2022-09-22T07:38:51.468Z,99.90
2022-09-22T07:41:20.182Z,99.90
2022-09-22T07:43:52.182Z,99.90
2022-09-22T07:46:20.236Z,99.90
2022-09-22T07:48:48.101Z,99.90
2022-09-22T07:51:22.509Z,99.90
2022-09-22T07:54:09.502Z,99.90
2022-09-22T07:56:40.665Z,99.90
2022-09-22T07:59:10.878Z,99.90
2022-09-22T08:01:42.138Z,99.90
2022-09-22T08:04:18.873Z,99.90
2022-09-22T08:06:47.344Z,99.90
2022-09-22T08:09:21.523Z,99.90
2022-09-22T08:11:50.093Z,99.90
2022-09-22T08:14:18.612Z,99.90
2022-09-22T08:16:46.411Z,99.90
2022-09-22T08:19:14.599Z,99.90
2022-09-22T08:21:48.975Z,99.90
2022-09-22T08:24:21.892Z,99.90
2022-09-22T08:26:51.094Z,99.90
2022-09-22T08:29:19.222Z,99.90
2022-09-22T08:31:47.512Z,99.90
2022-09-22T08:34:18.467Z,99.90
2022-09-22T08:36:48.744Z,99.90
2022-09-22T08:39:17.297Z,99.90
2022-09-22T08:41:48.822Z,99.90
2022-09-22T08:44:23.029Z,99.90
2022-09-22T08:46:53.109Z,99.90
2022-09-22T08:49:39.816Z,99.90
2022-09-22T08:52:16.896Z,99.90
2022-09-22T08:54:44.898Z,99.90
2022-09-22T08:57:15.833Z,99.90
2022-09-22T08:59:52.070Z,99.90
2022-09-22T09:02:21.406Z,99.90
2022-09-22T09:04:48.856Z,99.90
2022-09-22T09:07:43.253Z,99.90
2022-09-22T09:10:15.211Z,99.90
2022-09-22T09:12:58.051Z,99.90
2022-09-22T09:15:44.990Z,99.90
2022-09-22T09:18:15.304Z,99.90
2022-09-22T09:20:46.995Z,99.90
2022-09-22T09:23:23.238Z,97.70
2022-09-22T09:25:52.970Z,95.50
2022-09-22T09:28:33.568Z,92.20
2022-09-22T09:31:20.126Z,92.00
2022-09-22T09:33:50.895Z,96.80
2022-09-22T09:36:23.453Z,95.40
2022-09-22T09:38:53.805Z,97.50
2022-09-22T09:41:23.319Z,99.10
2022-09-22T09:43:53.242Z,99.90
2022-09-22T09:46:30.629Z,99.90
2022-09-22T09:49:05.752Z,99.90
2022-09-22T09:51:41.226Z,99.90
2022-09-22T09:54:16.734Z,99.20
2022-09-22T09:57:04.377Z,95.60
2022-09-22T09:59:51.192Z,94.50
2022-09-22T10:02:25.241Z,91.40
2022-09-22T10:05:01.431Z,93.10
2022-09-22T10:07:50.903Z,91.20
2022-09-22T10:10:33.123Z,90.80
2022-09-22T10:13:00.506Z,89.00
2022-09-22T10:15:33.417Z,79.00
2022-09-22T10:18:01.807Z,89.10
2022-09-22T10:20:31.668Z,76.60
2022-09-22T10:23:23.028Z,78.30
2022-09-22T10:26:16.391Z,84.20
2022-09-22T10:28:50.395Z,90.50
2022-09-22T10:31:21.735Z,90.50
2022-09-22T10:34:00.095Z,88.50
2022-09-22T10:36:31.968Z,75.70
2022-09-22T10:39:00.491Z,77.10
2022-09-22T10:41:35.504Z,80.60
2022-09-22T10:44:37.442Z,83.30
2022-09-22T10:47:07.024Z,82.60
2022-09-22T10:49:40.688Z,84.40
2022-09-22T10:52:09.242Z,88.10
2022-09-22T10:54:42.892Z,90.70
2022-09-22T10:57:19.127Z,89.70
2022-09-22T10:59:55.416Z,90.90
2022-09-22T11:02:34.487Z,87.00
2022-09-22T11:05:16.653Z,77.80
2022-09-22T11:08:12.028Z,80.20
2022-09-22T11:11:08.328Z,77.80
2022-09-22T11:13:47.250Z,81.20
2022-09-22T11:16:35.518Z,77.10
2022-09-22T11:19:09.199Z,78.90
2022-09-22T11:21:56.456Z,82.40
2022-09-22T11:24:44.638Z,77.60
2022-09-22T11:27:44.019Z,81.80
2022-09-22T11:30:18.352Z,90.70
2022-09-22T11:33:02.185Z,90.90
2022-09-22T11:35:49.452Z,89.70
2022-09-22T11:38:20.016Z,88.30
2022-09-22T11:41:08.441Z,92.40
2022-09-22T11:43:41.828Z,92.10
2022-09-22T11:46:15.740Z,92.20
2022-09-22T11:48:57.353Z,95.70
2022-09-22T11:51:39.207Z,92.50
2022-09-22T11:54:15.832Z,93.20
2022-09-22T11:56:46.357Z,93.00
2022-09-22T11:59:24.847Z,94.10
2022-09-22T12:02:06.887Z,93.80
2022-09-22T12:04:47.101Z,95.50
2022-09-22T12:07:24.862Z,95.40
2022-09-22T12:09:56.380Z,96.80
2022-09-22T12:12:25.251Z,94.50
2022-09-22T12:15:08.106Z,97.00
2022-09-22T12:17:46.412Z,95.50
2022-09-22T12:20:17.502Z,97.00
2022-09-22T12:23:03.828Z,99.60
2022-09-22T12:25:58.375Z,97.70
2022-09-22T12:28:28.031Z,98.60
2022-09-22T12:31:04.963Z,99.90
2022-09-22T12:33:34.386Z,99.90
2022-09-22T12:36:02.779Z,99.90
2022-09-22T12:38:31.419Z,99.90
2022-09-22T12:41:02.912Z,99.90
2022-09-22T12:43:31.644Z,99.90
2022-09-22T12:46:00.147Z,99.90
2022-09-22T12:48:36.735Z,99.90
2022-09-22T12:51:24.451Z,99.90
2022-09-22T12:54:12.463Z,99.90
2022-09-22T12:56:49.572Z,99.90
2022-09-22T12:59:36.711Z,99.90
2022-09-22T13:02:16.319Z,99.90
2022-09-22T13:04:56.414Z,99.90
2022-09-22T13:07:43.071Z,99.90
2022-09-22T13:10:26.538Z,99.90
2022-09-22T13:13:06.539Z,99.90
2022-09-22T13:15:46.045Z,99.90
2022-09-22T13:18:29.860Z,99.90
2022-09-22T13:21:02.294Z,99.90
2022-09-22T13:23:30.069Z,99.90
2022-09-22T13:26:05.261Z,99.90
2022-09-22T13:28:34.048Z,99.90
2022-09-22T13:31:09.496Z,99.90
2022-09-22T13:33:37.375Z,99.90
2022-09-22T13:36:06.610Z,99.90
2022-09-22T13:38:38.343Z,99.90
2022-09-22T13:41:16.242Z,99.90
2022-09-22T13:43:44.969Z,99.90
2022-09-22T13:46:36.064Z,99.90
2022-09-22T13:49:06.243Z,99.90
2022-09-22T13:51:34.924Z,99.90
2022-09-22T13:54:04.258Z,99.90
2022-09-22T13:56:32.481Z,99.90
2022-09-22T13:59:02.165Z,99.90
2022-09-22T14:01:30.428Z,99.90
2022-09-22T14:03:58.996Z,99.90
2022-09-22T14:06:28.571Z,99.90
2022-09-22T14:08:56.401Z,99.90
2022-09-22T14:11:28.625Z,99.90
2022-09-22T14:13:57.952Z,99.90
2022-09-22T14:16:28.376Z,99.90
2022-09-22T14:19:07.538Z,99.90
2022-09-22T14:21:45.583Z,99.90
2022-09-22T14:24:18.381Z,99.90
2022-09-22T14:26:54.917Z,99.90
2022-09-22T14:29:29.189Z,99.90
2022-09-22T14:32:02.834Z,99.90
2022-09-22T14:34:32.857Z,99.90
2022-09-22T14:37:02.555Z,99.90
2022-09-22T14:39:34.198Z,99.90
2022-09-22T14:42:11.927Z,99.90
2022-09-22T14:44:44.169Z,99.90
2022-09-22T14:47:25.632Z,99.90
2022-09-22T14:50:10.650Z,99.90
2022-09-22T14:52:58.628Z,99.90
2022-09-22T14:55:26.418Z,99.90
2022-09-22T14:57:53.835Z,99.90
2022-09-22T15:00:40.157Z,99.90
2022-09-22T15:03:16.784Z,99.90
2022-09-22T15:05:45.466Z,99.90
2022-09-22T15:08:18.156Z,99.90
2022-09-22T15:10:57.202Z,99.90
2022-09-22T15:13:36.764Z,99.90
2022-09-22T15:16:05.185Z,99.90
2022-09-22T15:18:32.670Z,99.90
2022-09-22T15:21:07.559Z,99.90
2022-09-22T15:23:42.786Z,99.90
2022-09-22T15:26:21.688Z,99.90
2022-09-22T15:28:53.194Z,99.90
2022-09-22T15:31:28.398Z,99.90
2022-09-22T15:33:59.308Z,99.90
2022-09-22T15:36:30.729Z,99.90
2022-09-22T15:39:06.946Z,99.90
2022-09-22T15:41:35.920Z,99.90
2022-09-22T15:44:05.470Z,99.90
2022-09-22T15:46:35.064Z,99.90
2022-09-22T15:49:04.289Z,99.90
2022-09-22T15:51:32.944Z,99.90
2022-09-22T15:54:00.542Z,99.90
2022-09-22T15:56:30.362Z,99.90
2022-09-22T15:59:01.079Z,99.90
2022-09-22T16:01:35.996Z,99.90
2022-09-22T16:04:03.998Z,99.90
2022-09-22T16:06:31.508Z,99.90
2022-09-22T16:08:59.293Z,99.90
2022-09-22T16:11:30.312Z,99.90
2022-09-22T16:14:00.769Z,99.90
2022-09-22T16:16:29.588Z,99.90
2022-09-22T16:18:57.389Z,99.90
2022-09-22T16:21:26.253Z,99.90
2022-09-22T16:23:59.526Z,99.90
2022-09-22T16:26:40.095Z,99.90
2022-09-22T16:29:08.593Z,99.90
2022-09-22T16:31:36.963Z,99.90
2022-09-22T16:34:05.324Z,99.90
2022-09-22T16:36:39.879Z,99.90
2022-09-22T16:39:07.475Z,99.90
2022-09-22T16:41:36.065Z,99.90
2022-09-22T16:44:04.848Z,99.90
2022-09-22T16:46:35.419Z,99.90
2022-09-22T16:49:12.031Z,99.90
2022-09-22T16:51:40.947Z,99.90
2022-09-22T16:54:10.518Z,99.90
2022-09-22T16:56:41.932Z,99.90
2022-09-22T16:59:09.924Z,99.90
2022-09-22T17:01:38.141Z,99.90
2022-09-22T17:04:07.031Z,99.90
2022-09-22T17:06:36.109Z,99.90
2022-09-22T17:09:05.049Z,99.90
2022-09-22T17:11:35.198Z,99.90
2022-09-22T17:14:04.623Z,99.90
2022-09-22T17:16:46.858Z,99.90
2022-09-22T17:19:21.725Z,99.90
2022-09-22T17:21:52.898Z,99.90
2022-09-22T17:24:20.497Z,99.90
2022-09-22T17:26:55.733Z,99.90
2022-09-22T17:29:27.603Z,99.90
2022-09-22T17:32:05.795Z,99.90
2022-09-22T17:34:34.373Z,99.90
2022-09-22T17:37:03.087Z,99.90
2022-09-22T17:39:35.579Z,99.90
2022-09-22T17:42:11.461Z,99.90
2022-09-22T17:44:42.240Z,99.90
2022-09-22T17:47:28.736Z,99.90
2022-09-22T17:50:14.972Z,99.90
2022-09-22T17:53:03.322Z,99.90
2022-09-22T17:55:31.064Z,99.90
2022-09-22T17:58:00.901Z,99.90
2022-09-22T18:00:34.099Z,99.90
2022-09-22T18:03:03.080Z,99.90
2022-09-22T18:05:33.013Z,99.90
2022-09-22T18:08:01.914Z,99.90
2022-09-22T18:10:34.425Z,99.90
2022-09-22T18:13:05.763Z,99.90
2022-09-22T18:15:40.668Z,99.90
2022-09-22T18:18:08.632Z,99.90
2022-09-22T18:20:36.547Z,99.90
2022-09-22T18:23:07.791Z,99.90
2022-09-22T18:25:36.296Z,99.90
2022-09-22T18:28:05.648Z,99.90
2022-09-22T18:30:35.623Z,99.90
2022-09-22T18:33:07.085Z,99.90
2022-09-22T18:35:35.022Z,99.90
2022-09-22T18:38:05.210Z,99.90
2022-09-22T18:43:55.273Z,99.90
2022-09-22T18:46:22.833Z,99.90
2022-09-22T18:49:05.265Z,99.90
2022-09-22T18:51:49.099Z,99.90
2022-09-22T18:54:17.232Z,99.90
2022-09-22T18:56:45.652Z,99.90
2022-09-22T18:59:18.732Z,99.90
2022-09-22T19:01:47.736Z,99.90
2022-09-22T19:04:17.235Z,99.90
2022-09-22T19:07:03.530Z,99.90
2022-09-22T19:09:30.967Z,99.90
2022-09-22T19:11:59.253Z,99.90
2022-09-22T19:14:36.601Z,99.90
2022-09-22T19:17:04.366Z,99.90
2022-09-22T19:19:32.529Z,99.90
2022-09-22T19:22:00.782Z,99.90
2022-09-22T19:24:28.511Z,99.90
2022-09-22T19:26:56.336Z,99.90
2022-09-22T19:29:24.567Z,99.90
2022-09-22T19:31:55.667Z,99.90
2022-09-22T19:34:23.506Z,99.90
2022-09-22T19:36:55.714Z,99.90
2022-09-22T19:39:23.477Z,99.90
2022-09-22T19:41:52.472Z,99.90
2022-09-22T19:44:21.566Z,99.90
2022-09-22T19:46:49.663Z,99.90
2022-09-22T19:49:17.477Z,99.90
2022-09-22T19:51:45.558Z,99.90
2022-09-22T19:54:13.920Z,99.90
2022-09-22T19:56:42.336Z,99.90
2022-09-22T19:59:10.404Z,99.90
2022-09-22T20:01:41.256Z,99.90
2022-09-22T20:04:18.252Z,99.90
2022-09-22T20:06:47.317Z,99.90
2022-09-22T20:09:15.440Z,99.90
2022-09-22T20:11:44.926Z,99.90
2022-09-22T20:14:27.342Z,99.90
2022-09-22T20:17:02.712Z,99.90
2022-09-22T20:19:38.698Z,99.90
2022-09-22T20:22:17.600Z,99.90
2022-09-22T20:24:53.945Z,99.90
2022-09-22T20:27:26.734Z,99.90
2022-09-22T20:29:57.300Z,99.90
2022-09-22T20:32:27.610Z,99.90
2022-09-22T20:34:58.256Z,99.90
2022-09-22T20:37:26.305Z,99.90
2022-09-22T20:39:56.040Z,99.90
2022-09-22T20:42:24.191Z,99.90
2022-09-22T20:44:55.400Z,99.90
2022-09-22T20:47:25.405Z,99.90
2022-09-22T20:49:53.206Z,99.90
2022-09-22T20:52:21.205Z,99.90
2022-09-22T20:54:49.630Z,99.90
2022-09-22T20:57:17.485Z,99.90
2022-09-22T20:59:46.361Z,99.90
2022-09-22T21:02:14.764Z,99.90
2022-09-22T21:04:42.578Z,99.90
2022-09-22T21:07:11.597Z,99.90
2022-09-22T21:09:58.241Z,99.90
2022-09-22T21:12:30.785Z,99.90
2022-09-22T21:14:59.083Z,99.90
2022-09-22T21:17:31.277Z,99.90
2022-09-22T21:19:58.913Z,99.90
2022-09-22T21:22:31.250Z,99.90
2022-09-22T21:25:00.825Z,99.90
2022-09-22T21:27:29.112Z,99.90
2022-09-22T21:30:01.535Z,99.90
2022-09-22T21:32:29.510Z,99.90
2022-09-22T21:34:57.597Z,99.90
2022-09-22T21:37:25.252Z,99.90
2022-09-22T21:39:53.057Z,99.90
2022-09-22T21:42:21.009Z,99.90
2022-09-22T21:44:48.706Z,99.90
2022-09-22T21:47:16.446Z,99.90
2022-09-22T21:49:47.619Z,99.90
2022-09-22T21:52:16.269Z,99.90
2022-09-22T21:54:44.206Z,99.90
2022-09-22T21:57:12.612Z,99.90
2022-09-22T21:59:40.177Z,99.90
2022-09-22T22:02:08.806Z,99.90
2022-09-22T22:04:36.452Z,99.90
2022-09-22T22:07:04.626Z,99.90
2022-09-22T22:09:32.091Z,99.90
2022-09-22T22:11:59.958Z,99.90
2022-09-22T22:14:33.193Z,99.90
2022-09-22T22:17:03.795Z,99.90
2022-09-22T22:19:32.518Z,99.90
2022-09-22T22:22:00.181Z,99.90
2022-09-22T22:24:28.461Z,99.90
2022-09-22T22:26:57.224Z,99.90
2022-09-22T22:29:26.108Z,99.90
2022-09-22T22:31:53.952Z,99.90
2022-09-22T22:34:22.558Z,99.90
2022-09-22T22:36:50.605Z,99.90
2022-09-22T22:39:19.810Z,99.90
2022-09-22T22:41:50.968Z,99.90
2022-09-22T22:44:19.011Z,99.90
2022-09-22T22:46:46.684Z,99.90
2022-09-22T22:49:15.036Z,99.90
2022-09-22T22:51:46.240Z,99.90
2022-09-22T22:54:14.676Z,99.90
2022-09-22T22:56:44.334Z,99.90
2022-09-22T22:59:13.450Z,99.90
2022-09-22T23:01:41.681Z,99.90
2022-09-22T23:04:10.343Z,99.90
2022-09-22T23:06:39.713Z,99.90
2022-09-22T23:09:08.462Z,99.90
2022-09-22T23:11:37.806Z,99.90
2022-09-22T23:14:07.493Z,99.90
2022-09-22T23:16:37.983Z,99.90
2022-09-22T23:19:07.845Z,99.90
2022-09-22T23:21:36.091Z,99.90
2022-09-22T23:24:04.743Z,99.90
2022-09-22T23:26:32.411Z,99.90
2022-09-22T23:29:04.450Z,99.90
2022-09-22T23:31:32.786Z,99.90
2022-09-22T23:34:00.541Z,99.90
2022-09-22T23:36:36.947Z,99.90
2022-09-22T23:39:05.139Z,99.90
2022-09-22T23:41:33.767Z,99.90
2022-09-22T23:44:02.924Z,99.90
2022-09-22T23:46:30.962Z,99.90
2022-09-22T23:49:00.314Z,99.90
2022-09-22T23:51:28.303Z,99.90
2022-09-22T23:53:56.410Z,99.90
2022-09-22T23:56:25.043Z,99.90
2022-09-22T23:58:52.550Z,99.90
